createdAt,value
2019-01-29T00:01:39.867Z,89.74
2019-01-29T00:04:08.613Z,89.75
2019-01-29T00:06:37.394Z,89.80
2019-01-29T00:09:09.077Z,89.87
2019-01-29T00:11:37.839Z,89.87
2019-01-29T00:14:06.308Z,89.89
2019-01-29T00:16:34.761Z,89.91
2019-01-29T00:19:03.188Z,89.94
2019-01-29T00:21:31.939Z,89.90
2019-01-29T00:24:00.366Z,89.91
2019-01-29T00:26:28.818Z,89.95
2019-01-29T00:28:57.247Z,89.97
2019-01-29T00:31:25.960Z,89.98
2019-01-29T00:33:54.682Z,89.94
2019-01-29T00:36:23.472Z,90.03
2019-01-29T00:38:52.255Z,90.04
2019-01-29T00:41:21.061Z,90.07
2019-01-29T00:43:49.523Z,90.08
2019-01-29T00:46:18.315Z,90.10
2019-01-29T00:48:46.778Z,90.10
2019-01-29T00:51:16.714Z,90.14
2019-01-29T00:53:45.498Z,90.16
2019-01-29T00:56:14.286Z,90.20
2019-01-29T00:58:42.730Z,90.20
2019-01-29T01:01:11.154Z,90.20
2019-01-29T01:03:39.600Z,90.13
2019-01-29T01:06:08.309Z,90.15
2019-01-29T01:08:38.445Z,90.14
2019-01-29T01:11:06.996Z,90.11
2019-01-29T01:13:35.694Z,90.12
2019-01-29T01:16:04.127Z,90.11
2019-01-29T01:18:33.486Z,90.17
2019-01-29T01:21:01.923Z,90.24
2019-01-29T01:23:30.616Z,90.25
2019-01-29T01:25:59.327Z,90.22
2019-01-29T01:28:27.766Z,90.25
2019-01-29T01:30:56.197Z,90.21
2019-01-29T01:33:24.639Z,90.21
2019-01-29T01:35:53.088Z,90.21
2019-01-29T01:38:21.534Z,90.16
2019-01-29T01:40:50.206Z,90.17
2019-01-29T01:43:19.000Z,90.16
2019-01-29T01:45:47.432Z,90.17
2019-01-29T01:48:15.956Z,90.16
2019-01-29T01:50:44.385Z,90.20
2019-01-29T01:53:13.127Z,90.20
2019-01-29T01:55:41.871Z,90.20
2019-01-29T01:58:10.320Z,90.21
2019-01-29T02:00:39.087Z,90.22
2019-01-29T02:03:07.539Z,90.26
2019-01-29T02:05:35.970Z,90.26
2019-01-29T02:08:04.423Z,90.24
2019-01-29T02:10:32.873Z,90.29
2019-01-29T02:13:01.304Z,90.29
2019-01-29T02:15:29.747Z,90.32
2019-01-29T02:17:58.186Z,90.30
2019-01-29T02:20:26.631Z,90.22
2019-01-29T02:22:55.148Z,90.27
2019-01-29T02:25:24.198Z,90.21
2019-01-29T02:27:52.624Z,90.29
2019-01-29T02:30:22.944Z,90.22
2019-01-29T02:32:51.697Z,90.13
2019-01-29T02:35:20.821Z,90.02
2019-01-29T02:37:49.640Z,89.99
2019-01-29T02:40:20.507Z,89.97
2019-01-29T02:42:48.941Z,89.87
2019-01-29T02:45:19.116Z,89.75
2019-01-29T02:47:47.599Z,89.60
2019-01-29T02:50:16.115Z,89.43
2019-01-29T02:52:45.224Z,89.34
2019-01-29T02:55:14.070Z,89.16
2019-01-29T02:57:42.809Z,88.89
2019-01-29T03:00:14.640Z,88.91
2019-01-29T03:02:43.067Z,88.89
2019-01-29T03:05:12.192Z,89.10
2019-01-29T03:07:42.795Z,89.10
2019-01-29T03:10:12.900Z,89.07
2019-01-29T03:12:41.410Z,88.92
2019-01-29T03:15:12.808Z,88.94
2019-01-29T03:17:41.226Z,88.81
2019-01-29T03:20:10.235Z,88.84
2019-01-29T03:22:38.664Z,88.96
2019-01-29T03:25:08.604Z,89.11
2019-01-29T03:27:37.524Z,89.16
2019-01-29T03:30:07.297Z,89.20
2019-01-29T03:32:36.218Z,89.34
2019-01-29T03:35:05.793Z,89.40
2019-01-29T03:37:34.264Z,89.51
2019-01-29T03:40:02.998Z,89.60
2019-01-29T03:42:31.463Z,89.53
2019-01-29T03:44:59.900Z,89.64
2019-01-29T03:47:28.334Z,89.69
2019-01-29T03:49:56.780Z,89.65
2019-01-29T03:52:25.510Z,89.59
2019-01-29T03:54:53.960Z,89.58
2019-01-29T03:57:22.399Z,89.44
2019-01-29T03:59:50.831Z,89.47
2019-01-29T04:02:19.633Z,89.49
2019-01-29T04:04:48.331Z,89.55
2019-01-29T04:07:16.787Z,89.61
2019-01-29T04:09:45.291Z,89.68
2019-01-29T04:12:13.727Z,89.73
2019-01-29T04:14:42.451Z,89.72
2019-01-29T04:17:10.896Z,89.73
2019-01-29T04:19:39.320Z,89.70
2019-01-29T04:22:07.811Z,89.73
2019-01-29T04:24:36.604Z,89.71
2019-01-29T04:27:05.336Z,89.56
2019-01-29T04:29:34.040Z,89.62
2019-01-29T04:32:02.486Z,89.62
2019-01-29T04:34:31.579Z,89.68
2019-01-29T04:37:00.306Z,89.57
2019-01-29T04:39:29.090Z,89.47
2019-01-29T04:41:57.875Z,89.40
2019-01-29T04:44:26.321Z,89.34
2019-01-29T04:46:55.011Z,89.25
2019-01-29T04:49:23.739Z,89.21
2019-01-29T04:51:52.182Z,88.89
2019-01-29T04:54:20.642Z,88.93
2019-01-29T04:56:49.055Z,89.15
2019-01-29T04:59:17.554Z,89.14
2019-01-29T05:01:46.010Z,89.16
2019-01-29T05:04:14.449Z,89.31
2019-01-29T05:06:42.885Z,89.34
2019-01-29T05:09:11.685Z,89.25
2019-01-29T05:11:40.979Z,89.33
2019-01-29T05:14:09.418Z,89.27
2019-01-29T05:16:37.859Z,89.32
2019-01-29T05:19:06.306Z,89.26
2019-01-29T05:21:34.754Z,89.25
2019-01-29T05:24:06.764Z,89.29
2019-01-29T05:26:33.978Z,89.40
2019-01-29T05:29:02.442Z,89.36
2019-01-29T05:31:31.404Z,89.30
2019-01-29T05:33:59.834Z,89.26
2019-01-29T05:36:28.264Z,89.32
2019-01-29T05:38:56.715Z,89.30
2019-01-29T05:41:25.166Z,89.33
2019-01-29T05:43:53.865Z,89.36
2019-01-29T05:46:22.291Z,89.35
2019-01-29T05:48:51.036Z,89.48
2019-01-29T05:51:19.811Z,89.44
2019-01-29T05:53:48.503Z,89.30
2019-01-29T05:56:16.931Z,89.17
2019-01-29T05:58:45.706Z,89.17
2019-01-29T06:01:14.468Z,89.11
2019-01-29T06:03:42.903Z,89.01
2019-01-29T06:06:11.650Z,88.98
2019-01-29T06:08:40.448Z,88.99
2019-01-29T06:11:11.929Z,88.77
2019-01-29T06:13:40.987Z,88.72
2019-01-29T06:16:09.739Z,88.71
2019-01-29T06:18:38.186Z,88.66
2019-01-29T06:21:07.352Z,88.53
2019-01-29T06:23:35.808Z,88.51
2019-01-29T06:26:04.644Z,88.55
2019-01-29T06:28:33.086Z,88.55
2019-01-29T06:31:02.079Z,88.53
2019-01-29T06:33:30.519Z,88.69
2019-01-29T06:36:02.048Z,88.74
2019-01-29T06:38:30.477Z,88.81
2019-01-29T06:40:58.915Z,88.90
2019-01-29T06:43:27.470Z,88.90
2019-01-29T06:45:56.159Z,88.95
2019-01-29T06:48:24.650Z,88.80
2019-01-29T06:50:53.171Z,88.85
2019-01-29T06:53:21.578Z,88.90
2019-01-29T06:55:50.280Z,88.86
2019-01-29T06:58:18.715Z,88.96
2019-01-29T07:00:47.158Z,88.92
2019-01-29T07:03:15.623Z,88.85
2019-01-29T07:05:44.369Z,88.94
2019-01-29T07:08:12.808Z,88.81
2019-01-29T07:10:41.574Z,88.80
2019-01-29T07:13:10.362Z,88.80
2019-01-29T07:15:56.482Z,88.70
2019-01-29T07:18:33.620Z,88.63
2019-01-29T07:21:03.730Z,88.69
2019-01-29T07:23:32.170Z,88.74
2019-01-29T07:26:00.602Z,88.62
2019-01-29T07:28:29.388Z,88.73
2019-01-29T07:30:57.827Z,88.79
2019-01-29T07:33:26.578Z,88.85
2019-01-29T07:35:55.667Z,88.86
2019-01-29T07:38:24.095Z,88.81
2019-01-29T07:40:52.843Z,88.75
2019-01-29T07:43:21.275Z,88.70
2019-01-29T07:45:49.970Z,88.77
2019-01-29T07:48:18.398Z,88.68
2019-01-29T07:50:47.470Z,88.73
2019-01-29T07:53:15.925Z,88.69
2019-01-29T07:55:44.349Z,88.46
2019-01-29T07:58:12.776Z,88.41
2019-01-29T08:00:42.291Z,88.12
2019-01-29T08:03:11.411Z,87.96
2019-01-29T08:05:40.144Z,87.83
2019-01-29T08:08:08.886Z,87.98
2019-01-29T08:10:37.885Z,87.90
2019-01-29T08:13:06.708Z,87.73
2019-01-29T08:15:35.107Z,87.61
2019-01-29T08:18:03.833Z,87.61
2019-01-29T08:20:32.300Z,87.52
2019-01-29T08:23:00.738Z,87.51
2019-01-29T08:25:29.194Z,87.66
2019-01-29T08:27:58.008Z,87.72
2019-01-29T08:30:26.446Z,87.59
2019-01-29T08:32:54.876Z,87.81
2019-01-29T08:35:23.614Z,87.87
2019-01-29T08:37:52.037Z,87.71
2019-01-29T08:40:20.775Z,87.70
2019-01-29T08:42:49.769Z,87.73
2019-01-29T08:45:18.233Z,87.46
2019-01-29T08:47:46.953Z,86.74
2019-01-29T08:50:18.394Z,86.90
2019-01-29T08:52:47.180Z,86.94
2019-01-29T08:55:15.874Z,87.11
2019-01-29T08:57:44.648Z,87.02
2019-01-29T09:00:14.385Z,86.98
2019-01-29T09:02:42.837Z,86.78
2019-01-29T09:05:11.570Z,86.66
2019-01-29T09:07:40.619Z,86.60
2019-01-29T09:10:10.784Z,86.34
2019-01-29T09:12:39.276Z,85.57
2019-01-29T09:15:09.999Z,85.86
2019-01-29T09:17:38.436Z,86.17
2019-01-29T09:20:07.077Z,86.39
2019-01-29T09:22:35.802Z,86.40
2019-01-29T09:25:04.589Z,86.75
2019-01-29T09:27:33.355Z,86.94
2019-01-29T09:30:01.789Z,87.07
2019-01-29T09:32:30.232Z,87.13
2019-01-29T09:34:58.925Z,86.94
2019-01-29T09:37:27.674Z,86.91
2019-01-29T09:39:56.131Z,87.28
2019-01-29T09:42:25.195Z,86.92
2019-01-29T09:44:53.687Z,86.76
2019-01-29T09:47:22.136Z,86.92
2019-01-29T09:49:50.842Z,86.44
2019-01-29T09:52:19.633Z,85.76
2019-01-29T09:54:48.076Z,84.61
2019-01-29T09:57:16.539Z,84.60
2019-01-29T09:59:45.030Z,84.12
2019-01-29T10:02:13.477Z,84.22
2019-01-29T10:04:42.225Z,83.91
2019-01-29T10:07:10.713Z,84.36
2019-01-29T10:09:39.111Z,84.85
2019-01-29T10:12:07.547Z,84.72
2019-01-29T10:14:35.972Z,84.82
2019-01-29T10:17:04.417Z,84.48
2019-01-29T10:19:33.109Z,83.79
2019-01-29T10:22:01.905Z,81.88
2019-01-29T10:24:30.331Z,81.99
2019-01-29T10:26:58.765Z,81.44
2019-01-29T10:29:27.196Z,82.95
2019-01-29T10:31:55.639Z,83.12
2019-01-29T10:34:24.366Z,83.72
2019-01-29T10:36:52.809Z,82.67
2019-01-29T10:39:21.582Z,81.74
2019-01-29T10:41:50.025Z,81.61
2019-01-29T10:44:18.452Z,81.35
2019-01-29T10:46:47.139Z,81.32
2019-01-29T10:49:15.585Z,81.18
2019-01-29T10:51:44.393Z,82.55
2019-01-29T10:54:12.819Z,81.95
2019-01-29T10:56:41.266Z,80.75
2019-01-29T10:59:10.034Z,81.36
2019-01-29T11:01:38.475Z,81.43
2019-01-29T11:04:07.378Z,81.81
2019-01-29T11:06:36.164Z,82.62
2019-01-29T11:09:08.212Z,82.23
2019-01-29T11:11:35.919Z,82.93
2019-01-29T11:14:04.317Z,82.08
2019-01-29T11:16:32.771Z,82.98
2019-01-29T11:19:03.282Z,83.00
2019-01-29T11:21:31.614Z,82.24
2019-01-29T11:24:00.065Z,82.62
2019-01-29T11:26:28.494Z,82.24
2019-01-29T11:28:57.039Z,82.32
2019-01-29T11:31:25.697Z,82.35
2019-01-29T11:33:54.129Z,82.22
2019-01-29T11:36:22.797Z,81.76
2019-01-29T11:38:51.229Z,79.97
2019-01-29T11:41:19.882Z,80.33
2019-01-29T11:43:48.385Z,80.09
2019-01-29T11:46:16.825Z,81.42
2019-01-29T11:48:45.282Z,80.58
2019-01-29T11:51:13.707Z,79.80
2019-01-29T11:53:42.455Z,80.79
2019-01-29T11:56:11.150Z,81.03
2019-01-29T11:58:39.585Z,81.58
2019-01-29T12:01:13.140Z,81.76
2019-01-29T12:03:41.830Z,81.59
2019-01-29T12:06:10.268Z,80.94
2019-01-29T12:08:38.717Z,81.04
2019-01-29T12:11:07.400Z,81.25
2019-01-29T12:13:35.891Z,81.46
2019-01-29T12:16:04.342Z,81.87
2019-01-29T12:18:32.805Z,81.59
2019-01-29T12:21:01.629Z,80.96
2019-01-29T12:23:30.087Z,81.26
2019-01-29T12:25:58.847Z,81.30
2019-01-29T12:28:27.286Z,80.64
2019-01-29T12:30:56.012Z,81.39
2019-01-29T12:33:24.447Z,81.93
2019-01-29T12:35:54.166Z,81.92
2019-01-29T12:38:23.191Z,80.95
2019-01-29T12:40:51.670Z,81.04
2019-01-29T12:43:20.107Z,80.54
2019-01-29T12:45:48.845Z,80.66
2019-01-29T12:48:17.340Z,80.71
2019-01-29T12:50:51.229Z,81.62
2019-01-29T12:53:22.275Z,82.04
2019-01-29T12:55:50.746Z,82.20
2019-01-29T12:58:19.168Z,81.81
2019-01-29T13:00:53.451Z,82.12
2019-01-29T13:03:21.883Z,82.47
2019-01-29T13:05:50.314Z,82.61
2019-01-29T13:08:21.583Z,81.58
2019-01-29T13:10:50.048Z,81.65
2019-01-29T13:13:18.827Z,81.66
2019-01-29T13:15:47.309Z,81.47
2019-01-29T13:18:15.742Z,81.62
2019-01-29T13:20:44.190Z,81.06
2019-01-29T13:23:12.619Z,80.84
2019-01-29T13:25:41.409Z,81.27
2019-01-29T13:28:09.843Z,81.15
2019-01-29T13:30:38.289Z,81.93
2019-01-29T13:33:09.378Z,82.37
2019-01-29T13:35:37.827Z,83.26
2019-01-29T13:38:06.933Z,84.38
2019-01-29T13:40:36.077Z,84.55
2019-01-29T13:43:05.201Z,83.44
2019-01-29T13:45:33.644Z,82.12
2019-01-29T13:48:02.062Z,81.36
2019-01-29T13:50:33.135Z,81.53
2019-01-29T13:53:02.193Z,81.23
2019-01-29T13:55:30.629Z,80.45
2019-01-29T13:57:59.050Z,79.48
2019-01-29T14:00:29.609Z,77.55
2019-01-29T14:02:58.045Z,73.51
2019-01-29T14:05:26.522Z,70.46
2019-01-29T14:07:54.952Z,69.51
2019-01-29T14:10:23.704Z,72.42
2019-01-29T14:12:52.504Z,72.85
2019-01-29T14:15:38.165Z,74.79
2019-01-29T14:18:08.768Z,74.34
2019-01-29T14:20:37.909Z,75.23
2019-01-29T14:23:07.979Z,76.55
2019-01-29T14:25:36.433Z,77.82
2019-01-29T14:28:04.885Z,78.37
2019-01-29T14:30:33.318Z,78.34
2019-01-29T14:33:01.736Z,78.41
2019-01-29T14:35:30.425Z,78.64
2019-01-29T14:38:46.286Z,78.23
2019-01-29T14:41:15.997Z,77.98
2019-01-29T14:43:50.374Z,78.47
2019-01-29T14:46:19.511Z,79.39
2019-01-29T14:48:47.942Z,80.17
2019-01-29T14:51:16.372Z,80.01
2019-01-29T14:53:44.802Z,80.42
2019-01-29T14:56:13.235Z,80.61
2019-01-29T14:58:42.156Z,80.64
2019-01-29T15:01:10.626Z,80.59
2019-01-29T15:03:39.067Z,80.99
2019-01-29T15:06:07.797Z,81.28
2019-01-29T15:08:36.237Z,81.64
2019-01-29T15:11:04.929Z,81.08
2019-01-29T15:13:33.365Z,81.63
2019-01-29T15:16:09.513Z,81.59
2019-01-29T15:18:41.509Z,81.72
2019-01-29T15:21:09.959Z,81.58
2019-01-29T15:23:38.394Z,82.36
2019-01-29T15:26:06.847Z,82.62
2019-01-29T15:28:35.275Z,82.63
2019-01-29T15:31:03.973Z,82.91
2019-01-29T15:33:32.417Z,83.09
2019-01-29T15:36:00.855Z,82.78
2019-01-29T15:38:29.626Z,83.01
2019-01-29T15:40:58.070Z,82.36
2019-01-29T15:43:26.501Z,82.64
2019-01-29T15:45:54.941Z,82.74
2019-01-29T15:48:24.062Z,83.29
2019-01-29T15:50:52.847Z,83.79
2019-01-29T15:53:21.304Z,84.37
2019-01-29T15:55:50.025Z,84.91
2019-01-29T15:58:18.801Z,85.45
2019-01-29T16:00:47.464Z,85.89
2019-01-29T16:03:15.909Z,86.22
2019-01-29T16:05:44.335Z,86.39
2019-01-29T16:08:12.790Z,86.49
2019-01-29T16:10:41.916Z,86.56
2019-01-29T16:13:10.356Z,86.18
2019-01-29T16:15:39.194Z,85.81
2019-01-29T16:18:07.634Z,85.71
2019-01-29T16:20:36.070Z,85.14
2019-01-29T16:23:06.370Z,84.21
2019-01-29T16:25:35.012Z,83.96
2019-01-29T16:28:03.457Z,84.12
2019-01-29T16:30:31.943Z,83.52
2019-01-29T16:33:00.392Z,83.63
2019-01-29T16:35:30.509Z,83.71
2019-01-29T16:37:58.980Z,83.92
2019-01-29T16:40:27.813Z,84.09
2019-01-29T16:42:56.693Z,84.36
2019-01-29T16:45:27.975Z,84.42
2019-01-29T16:47:56.510Z,85.45
2019-01-29T16:50:24.978Z,86.10
2019-01-29T16:52:53.421Z,86.56
2019-01-29T16:55:21.892Z,86.70
2019-01-29T16:57:50.346Z,86.97
2019-01-29T17:00:29.027Z,87.21
2019-01-29T17:02:57.535Z,87.51
2019-01-29T17:05:26.015Z,87.55
2019-01-29T17:07:54.538Z,87.68
2019-01-29T17:10:23.077Z,87.68
2019-01-29T17:12:51.509Z,87.69
2019-01-29T17:15:22.411Z,87.44
2019-01-29T17:17:50.868Z,87.35
2019-01-29T17:20:22.072Z,87.24
2019-01-29T17:22:50.550Z,86.90
2019-01-29T17:25:18.983Z,86.90
2019-01-29T17:27:47.766Z,86.74
2019-01-29T17:30:30.810Z,86.66
2019-01-29T17:32:59.264Z,86.79
2019-01-29T17:35:27.734Z,86.93
2019-01-29T17:37:56.235Z,87.01
2019-01-29T17:40:25.015Z,86.82
2019-01-29T17:42:53.468Z,86.67
2019-01-29T17:45:25.312Z,86.57
2019-01-29T17:47:53.837Z,86.35
2019-01-29T17:50:24.398Z,86.14
2019-01-29T17:52:53.163Z,85.91
2019-01-29T17:55:22.442Z,85.61
2019-01-29T17:57:51.255Z,85.51
2019-01-29T18:00:23.362Z,85.21
2019-01-29T18:02:51.071Z,85.28
2019-01-29T18:05:19.459Z,85.02
2019-01-29T18:07:48.920Z,84.91
2019-01-29T18:10:17.379Z,85.00
2019-01-29T18:12:46.133Z,84.75
2019-01-29T18:15:17.344Z,84.54
2019-01-29T18:17:48.189Z,84.55
2019-01-29T18:20:16.415Z,84.93
2019-01-29T18:22:44.868Z,85.41
2019-01-29T18:25:13.560Z,85.91
2019-01-29T18:27:42.044Z,86.24
2019-01-29T18:30:13.995Z,86.50
2019-01-29T18:32:42.428Z,86.67
2019-01-29T18:35:11.152Z,87.01
2019-01-29T18:37:39.577Z,87.44
2019-01-29T18:40:09.684Z,87.70
2019-01-29T18:42:38.436Z,87.83
2019-01-29T18:45:07.288Z,88.05
2019-01-29T18:47:35.744Z,88.25
2019-01-29T18:50:05.057Z,88.28
2019-01-29T18:52:33.485Z,88.46
2019-01-29T18:55:02.376Z,88.50
2019-01-29T18:57:30.780Z,88.45
2019-01-29T18:59:59.225Z,88.52
2019-01-29T19:02:27.921Z,88.67
2019-01-29T19:04:56.375Z,88.89
2019-01-29T19:07:24.798Z,89.02
2019-01-29T19:09:53.263Z,89.16
2019-01-29T19:12:21.765Z,89.15
2019-01-29T19:14:50.295Z,89.08
2019-01-29T19:17:19.016Z,89.11
2019-01-29T19:19:47.474Z,88.96
2019-01-29T19:22:16.278Z,88.67
2019-01-29T19:24:44.799Z,88.20
2019-01-29T19:27:13.233Z,87.88
2019-01-29T19:29:41.685Z,87.58
2019-01-29T19:32:10.532Z,87.81
2019-01-29T19:34:39.295Z,87.94
2019-01-29T19:37:07.724Z,88.10
2019-01-29T19:39:36.464Z,88.15
2019-01-29T19:42:04.891Z,88.01
2019-01-29T19:44:33.636Z,88.17
2019-01-29T19:47:02.091Z,88.32
2019-01-29T19:49:30.507Z,88.54
2019-01-29T19:51:59.248Z,88.70
2019-01-29T19:54:27.675Z,88.77
2019-01-29T19:56:56.454Z,88.61
2019-01-29T19:59:24.902Z,88.58
2019-01-29T20:01:53.338Z,88.69
2019-01-29T20:04:22.007Z,88.83
2019-01-29T20:06:50.442Z,89.01
2019-01-29T20:09:18.862Z,88.99
2019-01-29T20:11:47.323Z,89.01
2019-01-29T20:14:15.760Z,89.05
2019-01-29T20:16:44.221Z,89.08
2019-01-29T20:19:12.652Z,88.99
2019-01-29T20:21:41.350Z,89.03
2019-01-29T20:24:09.783Z,88.93
2019-01-29T20:26:38.243Z,88.92
2019-01-29T20:29:06.676Z,88.84
2019-01-29T20:31:35.122Z,88.78
2019-01-29T20:34:03.556Z,88.63
2019-01-29T20:36:32.016Z,88.45
2019-01-29T20:39:00.465Z,88.17
2019-01-29T20:41:28.931Z,88.28
2019-01-29T20:43:57.360Z,88.11
2019-01-29T20:46:26.351Z,87.95
2019-01-29T20:48:55.786Z,87.90
2019-01-29T20:51:24.229Z,87.92
2019-01-29T20:53:52.943Z,87.83
2019-01-29T20:56:21.381Z,87.99
2019-01-29T20:58:52.745Z,88.24
2019-01-29T21:01:20.390Z,88.26
2019-01-29T21:03:48.838Z,88.47
2019-01-29T21:06:17.288Z,88.51
2019-01-29T21:08:45.732Z,88.65
2019-01-29T21:11:14.586Z,88.69
2019-01-29T21:13:43.342Z,88.71
2019-01-29T21:16:11.796Z,88.68
2019-01-29T21:18:40.246Z,88.79
2019-01-29T21:21:08.996Z,88.70
2019-01-29T21:23:37.455Z,88.71
2019-01-29T21:26:06.244Z,88.81
2019-01-29T21:28:34.691Z,89.17
2019-01-29T21:31:03.437Z,89.24
2019-01-29T21:33:31.884Z,89.17
2019-01-29T21:36:00.354Z,89.08
2019-01-29T21:38:29.230Z,88.85
2019-01-29T21:40:58.108Z,88.71
2019-01-29T21:43:27.983Z,88.85
2019-01-29T21:45:56.549Z,88.84
2019-01-29T21:48:25.149Z,88.79
2019-01-29T21:50:53.566Z,88.76
2019-01-29T21:53:22.413Z,88.80
2019-01-29T21:55:51.099Z,88.95
2019-01-29T21:58:19.677Z,89.12
2019-01-29T22:00:48.150Z,89.23
2019-01-29T22:03:16.708Z,89.29
2019-01-29T22:05:45.149Z,89.27
2019-01-29T22:08:13.606Z,89.15
2019-01-29T22:10:42.095Z,89.27
2019-01-29T22:13:12.085Z,89.25
2019-01-29T22:15:41.303Z,89.27
2019-01-29T22:18:11.979Z,89.28
2019-01-29T22:20:40.456Z,89.37
2019-01-29T22:23:09.214Z,89.35
2019-01-29T22:25:37.666Z,89.33
2019-01-29T22:28:08.246Z,89.30
2019-01-29T22:30:37.652Z,89.35
2019-01-29T22:33:07.049Z,89.25
2019-01-29T22:35:35.614Z,89.25
2019-01-29T22:38:04.038Z,89.19
2019-01-29T22:40:32.578Z,89.13
2019-01-29T22:43:01.033Z,89.13
2019-01-29T22:45:29.506Z,89.15
2019-01-29T22:47:57.985Z,89.30
2019-01-29T22:50:29.006Z,89.45
2019-01-29T22:52:57.566Z,89.64
2019-01-29T22:55:26.026Z,89.76
2019-01-29T22:57:54.507Z,89.67
2019-01-29T23:00:48.790Z,89.71
2019-01-29T23:03:21.655Z,89.84
2019-01-29T23:05:55.349Z,89.88
2019-01-29T23:08:24.348Z,89.84
2019-01-29T23:10:52.811Z,89.76
2019-01-29T23:13:21.257Z,89.70
2019-01-29T23:15:50.097Z,89.65
2019-01-29T23:18:18.558Z,89.64
2019-01-29T23:20:46.971Z,89.62
2019-01-29T23:23:15.761Z,89.69
2019-01-29T23:25:44.216Z,89.59
2019-01-29T23:28:13.937Z,89.54
2019-01-29T23:30:42.382Z,89.44
2019-01-29T23:33:10.819Z,89.36
2019-01-29T23:35:41.955Z,89.24
2019-01-29T23:38:10.411Z,89.22
2019-01-29T23:40:39.075Z,89.24
2019-01-29T23:43:07.529Z,89.30
2019-01-29T23:45:35.977Z,89.42
2019-01-29T23:48:04.420Z,89.58
2019-01-29T23:50:32.895Z,89.64
2019-01-29T23:53:01.727Z,89.71
2019-01-29T23:55:30.157Z,89.84
2019-01-29T23:57:58.883Z,89.74
